createdAt,value
2022-11-04T00:02:03.129Z,73.91
2022-11-04T00:04:29.846Z,74.23
2022-11-04T00:06:57.235Z,74.49
2022-11-04T00:09:27.212Z,74.64
2022-11-04T00:12:12.747Z,74.43
2022-11-04T00:14:39.209Z,74.95
2022-11-04T00:17:24.324Z,75.09
2022-11-04T00:20:13.421Z,75.54
2022-11-04T00:23:00.687Z,75.35
2022-11-04T00:25:48.045Z,75.21
2022-11-04T00:28:35.637Z,75.86
2022-11-04T00:31:22.700Z,75.71
2022-11-04T00:33:51.560Z,75.99
2022-11-04T00:36:18.055Z,76.27
2022-11-04T00:38:44.501Z,76.45
2022-11-04T00:41:30.291Z,76.81
2022-11-04T00:43:58.451Z,77.00
2022-11-04T00:46:25.880Z,77.33
2022-11-04T00:48:52.410Z,77.40
2022-11-04T00:51:19.685Z,77.75
2022-11-04T00:53:46.304Z,77.91
2022-11-04T00:56:12.730Z,78.37
2022-11-04T00:58:39.210Z,78.62
2022-11-04T01:01:17.613Z,79.34
2022-11-04T01:03:45.796Z,78.95
2022-11-04T01:06:12.460Z,78.92
2022-11-04T01:08:39.286Z,78.94
2022-11-04T01:11:08.049Z,79.15
2022-11-04T01:13:34.923Z,78.93
2022-11-04T01:16:02.864Z,78.78
2022-11-04T01:18:29.376Z,78.59
2022-11-04T01:21:01.468Z,79.17
2022-11-04T01:23:28.438Z,78.80
2022-11-04T01:25:54.822Z,78.59
2022-11-04T01:28:21.202Z,78.49
2022-11-04T01:30:47.764Z,78.49
2022-11-04T01:33:14.317Z,78.63
2022-11-04T01:35:40.708Z,78.46
2022-11-04T01:38:07.272Z,78.71
2022-11-04T01:40:38.543Z,79.14
2022-11-04T01:43:15.169Z,79.29
2022-11-04T01:45:45.262Z,78.52
2022-11-04T01:48:22.207Z,79.34
2022-11-04T01:50:51.020Z,78.35
2022-11-04T01:53:26.781Z,79.02
2022-11-04T01:55:56.937Z,78.86
2022-11-04T01:58:26.321Z,78.87
2022-11-04T02:00:52.816Z,78.55
2022-11-04T02:03:24.409Z,78.72
2022-11-04T02:05:51.123Z,78.54
2022-11-04T02:08:18.281Z,78.56
2022-11-04T02:10:50.978Z,79.16
2022-11-04T02:13:18.152Z,78.60
2022-11-04T02:16:28.573Z,79.04
2022-11-04T02:18:55.264Z,77.94
2022-11-04T02:21:36.940Z,79.42
2022-11-04T02:24:28.239Z,79.62
2022-11-04T02:27:32.448Z,79.83
2022-11-04T02:30:10.101Z,79.95
2022-11-04T02:32:52.149Z,80.18
2022-11-04T02:35:37.299Z,79.91
2022-11-04T02:38:34.116Z,80.91
2022-11-04T02:41:09.673Z,81.10
2022-11-04T02:43:46.763Z,81.86
2022-11-04T02:46:36.385Z,82.30
2022-11-04T02:49:10.823Z,82.53
2022-11-04T02:51:44.855Z,82.73
2022-11-04T02:54:18.053Z,82.80
2022-11-04T02:56:49.936Z,83.04
2022-11-04T02:59:58.177Z,82.98
2022-11-04T03:02:33.436Z,83.77
2022-11-04T03:05:01.848Z,83.75
2022-11-04T03:07:34.064Z,84.75
2022-11-04T03:10:07.091Z,84.72
2022-11-04T03:12:42.441Z,84.92
2022-11-04T03:15:15.381Z,84.69
2022-11-04T03:17:54.687Z,85.49
2022-11-04T03:20:25.272Z,85.59
2022-11-04T03:22:55.700Z,85.94
2022-11-04T03:25:27.874Z,86.46
2022-11-04T03:28:05.893Z,86.67
2022-11-04T03:30:55.730Z,86.61
2022-11-04T03:33:33.209Z,86.36
2022-11-04T03:35:59.828Z,86.83
2022-11-04T03:38:26.192Z,86.93
2022-11-04T03:40:52.613Z,87.09
2022-11-04T03:43:25.944Z,87.50
2022-11-04T03:45:53.782Z,86.95
2022-11-04T03:48:20.678Z,87.48
2022-11-04T03:50:48.760Z,87.23
2022-11-04T03:56:06.418Z,88.13
2022-11-04T03:58:37.783Z,87.78
2022-11-04T04:01:41.614Z,88.24
2022-11-04T04:04:20.671Z,88.16
2022-11-04T04:06:53.517Z,87.70
2022-11-04T04:09:29.078Z,87.72
2022-11-04T04:12:02.934Z,87.53
2022-11-04T04:14:44.713Z,86.81
2022-11-04T04:17:36.337Z,86.70
2022-11-04T04:20:31.675Z,86.09
2022-11-04T04:23:03.151Z,85.51
2022-11-04T04:26:05.050Z,84.58
2022-11-04T04:28:31.475Z,83.25
2022-11-04T04:31:00.190Z,82.82
2022-11-04T04:33:26.961Z,81.68
2022-11-04T04:35:56.845Z,81.00
2022-11-04T04:38:46.967Z,79.99
2022-11-04T04:41:39.230Z,79.11
2022-11-04T04:44:33.603Z,78.55
2022-11-04T04:47:02.543Z,77.24
2022-11-04T04:49:34.990Z,76.56
2022-11-04T04:52:04.336Z,76.00
2022-11-04T04:54:30.758Z,75.37
2022-11-04T04:56:57.129Z,74.29
2022-11-04T04:59:23.514Z,74.03
2022-11-04T05:01:50.114Z,73.96
2022-11-04T05:04:16.711Z,73.48
2022-11-04T05:06:43.188Z,73.06
2022-11-04T05:09:09.704Z,72.80
2022-11-04T05:11:36.109Z,72.53
2022-11-04T05:14:02.602Z,72.72
2022-11-04T05:16:29.221Z,72.68
2022-11-04T05:18:55.686Z,72.56
2022-11-04T05:21:22.104Z,72.68
2022-11-04T05:23:48.477Z,72.28
2022-11-04T05:26:15.206Z,72.30
2022-11-04T05:28:41.588Z,72.29
2022-11-04T05:31:07.981Z,72.33
2022-11-04T05:33:34.372Z,72.48
2022-11-04T05:36:14.622Z,72.92
2022-11-04T05:38:41.567Z,72.32
2022-11-04T05:41:11.545Z,72.23
2022-11-04T05:43:38.089Z,72.43
2022-11-04T05:46:04.829Z,72.50
2022-11-04T05:48:34.049Z,72.43
2022-11-04T05:51:02.955Z,72.30
2022-11-04T05:53:29.417Z,72.48
2022-11-04T05:55:55.969Z,72.36
2022-11-04T05:58:22.421Z,72.49
2022-11-04T06:00:48.941Z,72.55
2022-11-04T06:03:16.439Z,72.40
2022-11-04T06:05:43.275Z,72.53
2022-11-04T06:08:10.109Z,72.74
2022-11-04T06:10:36.752Z,72.70
2022-11-04T06:13:03.185Z,72.69
2022-11-04T06:15:29.619Z,72.88
2022-11-04T06:17:56.114Z,72.82
2022-11-04T06:20:22.504Z,72.50
2022-11-04T06:22:49.010Z,72.73
2022-11-04T06:25:15.516Z,72.90
2022-11-04T06:27:42.089Z,72.97
2022-11-04T06:30:09.186Z,73.11
2022-11-04T06:32:35.614Z,72.84
2022-11-04T06:35:02.037Z,73.02
2022-11-04T06:37:28.519Z,73.28
2022-11-04T06:39:54.870Z,73.31
2022-11-04T06:42:21.256Z,73.43
2022-11-04T06:44:47.662Z,73.65
2022-11-04T06:47:14.077Z,73.89
2022-11-04T06:49:40.442Z,74.39
2022-11-04T06:52:06.810Z,74.45
2022-11-04T06:54:33.475Z,74.86
2022-11-04T06:56:59.918Z,74.94
2022-11-04T06:59:26.350Z,75.48
2022-11-04T07:01:52.883Z,75.46
2022-11-04T07:04:19.452Z,75.64
2022-11-04T07:06:46.158Z,76.09
2022-11-04T07:09:14.378Z,76.64
2022-11-04T07:11:41.851Z,76.47
2022-11-04T07:14:09.176Z,76.69
2022-11-04T07:16:35.821Z,76.88
2022-11-04T07:19:02.797Z,77.02
2022-11-04T07:21:29.294Z,77.07
2022-11-04T07:23:55.741Z,77.38
2022-11-04T07:26:22.274Z,77.63
2022-11-04T07:28:48.924Z,77.40
2022-11-04T07:31:15.730Z,77.77
2022-11-04T07:33:42.337Z,77.46
2022-11-04T07:36:12.720Z,77.69
2022-11-04T07:38:39.111Z,77.67
2022-11-04T07:41:05.694Z,77.56
2022-11-04T07:43:32.472Z,77.83
2022-11-04T07:46:04.285Z,78.67
2022-11-04T07:48:30.753Z,77.85
2022-11-04T07:50:59.603Z,78.92
2022-11-04T07:53:27.765Z,78.93
2022-11-04T07:55:54.187Z,78.98
2022-11-04T07:58:21.750Z,78.82
2022-11-04T08:00:48.549Z,78.70
2022-11-04T08:03:15.765Z,78.49
2022-11-04T08:05:42.166Z,78.38
2022-11-04T08:08:08.577Z,78.23
2022-11-04T08:10:35.857Z,78.00
2022-11-04T08:13:02.466Z,77.68
2022-11-04T08:15:29.458Z,77.63
2022-11-04T08:17:55.922Z,77.15
2022-11-04T08:20:22.389Z,77.13
2022-11-04T08:22:48.745Z,77.62
2022-11-04T08:25:15.185Z,76.66
2022-11-04T08:27:41.626Z,76.43
2022-11-04T08:30:08.874Z,76.29
2022-11-04T08:32:35.385Z,75.96
2022-11-04T08:35:01.788Z,75.66
2022-11-04T08:37:28.411Z,75.79
2022-11-04T08:39:54.778Z,75.43
2022-11-04T08:42:21.130Z,75.60
2022-11-04T08:44:51.387Z,75.69
2022-11-04T08:47:18.044Z,75.34
2022-11-04T08:49:44.560Z,74.93
2022-11-04T08:52:10.926Z,75.46
2022-11-04T08:54:37.308Z,75.03
2022-11-04T08:57:03.731Z,74.83
2022-11-04T08:59:30.158Z,74.34
2022-11-04T09:01:56.652Z,73.80
2022-11-04T09:04:23.835Z,73.72
2022-11-04T09:06:52.143Z,73.61
2022-11-04T09:09:19.255Z,73.53
2022-11-04T09:11:46.877Z,73.60
2022-11-04T09:14:13.440Z,73.43
2022-11-04T09:16:41.831Z,73.60
2022-11-04T09:19:08.849Z,73.07
2022-11-04T09:21:38.200Z,73.04
2022-11-04T09:24:06.096Z,72.50
2022-11-04T09:26:32.463Z,72.28
2022-11-04T09:28:59.314Z,72.31
2022-11-04T09:31:27.746Z,72.34
2022-11-04T09:33:55.550Z,71.48
2022-11-04T09:36:22.647Z,71.21
2022-11-04T09:38:49.688Z,71.23
2022-11-04T09:41:31.248Z,70.96
2022-11-04T09:44:48.182Z,71.25
2022-11-04T09:47:22.363Z,71.22
2022-11-04T09:49:53.732Z,71.46
2022-11-04T09:52:31.329Z,71.46
2022-11-04T09:55:07.284Z,71.23
2022-11-04T09:57:33.731Z,70.74
2022-11-04T10:00:00.590Z,70.98
2022-11-04T10:02:39.178Z,70.16
2022-11-04T10:05:23.902Z,70.01
2022-11-04T10:08:19.884Z,70.56
2022-11-04T10:11:21.393Z,69.55
2022-11-04T10:14:31.419Z,68.05
2022-11-04T10:17:26.367Z,68.14
2022-11-04T10:20:14.256Z,66.93
2022-11-04T10:22:52.728Z,65.85
2022-11-04T10:25:25.315Z,65.22
2022-11-04T10:27:52.414Z,64.22
2022-11-04T10:30:24.135Z,63.24
2022-11-04T10:33:12.603Z,62.32
2022-11-04T10:35:48.293Z,62.41
2022-11-04T10:38:33.168Z,62.01
2022-11-04T10:41:04.496Z,61.67
2022-11-04T10:43:37.514Z,61.90
2022-11-04T10:46:38.807Z,61.95
2022-11-04T10:49:15.687Z,61.35
2022-11-04T10:51:42.212Z,60.88
2022-11-04T10:54:10.226Z,61.07
2022-11-04T10:56:45.648Z,60.50
2022-11-04T10:59:27.526Z,61.63
2022-11-04T11:01:56.407Z,60.84
2022-11-04T11:04:25.724Z,60.94
2022-11-04T11:06:54.056Z,60.39
2022-11-04T11:09:30.103Z,61.51
2022-11-04T11:12:29.503Z,61.55
2022-11-04T11:14:53.251Z,60.79
2022-11-04T11:17:21.268Z,60.54
2022-11-04T11:19:54.858Z,60.22
2022-11-04T11:22:54.867Z,59.79
2022-11-04T11:25:21.412Z,58.76
2022-11-04T11:27:50.839Z,57.74
2022-11-04T11:30:26.142Z,58.97
2022-11-04T11:33:00.154Z,58.18
2022-11-04T11:35:31.913Z,57.11
2022-11-04T11:38:00.292Z,57.01
2022-11-04T11:40:35.669Z,56.48
2022-11-04T11:43:02.460Z,56.67
2022-11-04T11:45:30.022Z,56.36
2022-11-04T11:47:56.488Z,55.99
2022-11-04T11:50:34.381Z,56.67
2022-11-04T11:53:14.161Z,57.05
2022-11-04T11:55:47.882Z,57.40
2022-11-04T12:01:33.986Z,57.64
2022-11-04T12:10:04.781Z,59.00
2022-11-04T12:12:44.527Z,58.47
2022-11-04T12:15:29.791Z,58.81
2022-11-04T12:18:41.328Z,58.53
2022-11-04T12:21:16.881Z,57.71
2022-11-04T12:24:08.334Z,58.47
2022-11-04T12:26:56.218Z,59.09
2022-11-04T12:29:49.975Z,58.97
2022-11-04T12:32:35.132Z,59.08
2022-11-04T12:35:38.316Z,59.03
2022-11-04T12:38:11.453Z,59.09
2022-11-04T12:41:41.872Z,59.62
2022-11-04T12:43:55.764Z,59.95
2022-11-04T12:46:58.812Z,60.11
2022-11-04T12:49:45.845Z,59.42
2022-11-04T12:52:48.740Z,58.92
2022-11-04T12:55:18.249Z,58.63
2022-11-04T12:58:12.091Z,58.20
2022-11-04T13:00:41.454Z,58.24
2022-11-04T13:03:14.961Z,58.36
2022-11-04T13:06:08.854Z,58.29
2022-11-04T13:08:58.996Z,58.73
2022-11-04T13:11:31.180Z,58.11
2022-11-04T13:14:22.798Z,58.44
2022-11-04T13:16:51.712Z,58.05
2022-11-04T13:19:31.502Z,58.56
2022-11-04T13:22:03.667Z,58.60
2022-11-04T13:24:33.078Z,58.56
2022-11-04T13:27:03.370Z,57.89
2022-11-04T13:29:30.368Z,58.12
2022-11-04T13:32:17.772Z,58.08
2022-11-04T13:35:04.214Z,57.66
2022-11-04T13:37:37.150Z,57.58
2022-11-04T13:40:17.921Z,57.16
2022-11-04T13:43:16.203Z,57.72
2022-11-04T13:45:51.199Z,57.65
2022-11-04T13:48:22.016Z,57.65
2022-11-04T13:51:05.656Z,58.32
2022-11-04T13:53:49.449Z,58.61
2022-11-04T13:56:34.828Z,58.88
2022-11-04T13:59:19.129Z,59.13
2022-11-04T14:01:46.089Z,58.78
2022-11-04T14:04:12.495Z,59.35
2022-11-04T14:06:59.476Z,59.75
2022-11-04T14:09:46.829Z,59.95
2022-11-04T14:12:19.992Z,60.11
2022-11-04T14:14:49.935Z,60.18
2022-11-04T14:17:34.744Z,60.43
2022-11-04T14:20:11.728Z,60.67
2022-11-04T14:22:44.166Z,60.58
2022-11-04T14:25:29.513Z,61.38
2022-11-04T14:27:59.103Z,61.20
2022-11-04T14:30:30.239Z,61.70
2022-11-04T14:33:01.237Z,62.44
2022-11-04T14:35:29.307Z,63.25
2022-11-04T14:37:56.256Z,63.63
2022-11-04T14:40:27.338Z,65.15
2022-11-04T14:42:56.095Z,65.25
2022-11-04T14:45:25.534Z,65.87
2022-11-04T14:47:56.536Z,66.56
2022-11-04T14:50:28.285Z,67.35
2022-11-04T14:53:01.603Z,67.24
2022-11-04T14:55:30.181Z,67.27
2022-11-04T14:58:00.726Z,67.34
2022-11-04T15:00:27.448Z,67.09
2022-11-04T15:04:09.478Z,67.66
2022-11-04T15:06:12.047Z,67.17
2022-11-04T15:08:43.986Z,67.13
2022-11-04T15:11:15.726Z,67.76
2022-11-04T15:13:50.243Z,67.79
2022-11-04T15:16:20.139Z,67.96
2022-11-04T15:18:47.352Z,67.83
2022-11-04T15:21:15.311Z,68.04
2022-11-04T15:23:52.827Z,68.46
2022-11-04T15:26:30.419Z,68.62
2022-11-04T15:29:00.486Z,68.08
2022-11-04T15:31:32.491Z,68.62
2022-11-04T15:34:01.955Z,68.82
2022-11-04T15:36:31.077Z,69.05
2022-11-04T15:39:05.342Z,69.25
2022-11-04T15:41:52.998Z,69.22
2022-11-04T15:44:28.373Z,69.92
2022-11-04T15:47:01.175Z,70.08
2022-11-04T15:49:30.081Z,69.36
2022-11-04T15:52:05.073Z,69.05
2022-11-04T15:54:37.672Z,68.87
2022-11-04T15:57:31.652Z,68.92
2022-11-04T16:00:01.900Z,68.97
2022-11-04T16:02:29.571Z,68.23
2022-11-04T16:05:08.577Z,69.69
2022-11-04T16:07:43.693Z,70.04
2022-11-04T16:10:25.041Z,70.59
2022-11-04T16:13:14.774Z,70.60
2022-11-04T16:15:59.415Z,70.91
2022-11-04T16:18:42.785Z,71.28
2022-11-04T16:21:13.015Z,71.29
2022-11-04T16:23:44.457Z,70.24
2022-11-04T16:26:11.351Z,70.71
2022-11-04T16:28:43.020Z,71.05
2022-11-04T16:31:21.389Z,71.83
2022-11-04T16:33:49.014Z,71.57
2022-11-04T16:36:26.828Z,71.79
2022-11-04T16:39:03.691Z,72.59
2022-11-04T16:41:35.620Z,72.63
2022-11-04T16:44:03.769Z,72.66
2022-11-04T16:46:32.364Z,73.00
2022-11-04T16:48:58.897Z,73.42
2022-11-04T16:51:26.490Z,73.77
2022-11-04T16:53:54.647Z,73.72
2022-11-04T16:56:23.417Z,74.11
2022-11-04T16:58:50.596Z,74.70
2022-11-04T17:01:18.396Z,74.98
2022-11-04T17:03:45.246Z,75.05
2022-11-04T17:06:14.130Z,75.80
2022-11-04T17:08:42.097Z,76.22
2022-11-04T17:11:09.852Z,76.59
2022-11-04T17:13:37.192Z,77.07
2022-11-04T17:16:07.587Z,78.04
2022-11-04T17:18:34.918Z,78.01
2022-11-04T17:21:06.781Z,78.72
2022-11-04T17:23:33.820Z,78.27
2022-11-04T17:26:00.333Z,78.46
2022-11-04T17:28:31.506Z,78.49
2022-11-04T17:30:57.995Z,78.71
2022-11-04T17:33:24.539Z,78.76
2022-11-04T17:35:51.454Z,79.20
2022-11-04T17:38:18.625Z,79.47
2022-11-04T17:41:04.357Z,79.84
2022-11-04T17:43:49.694Z,79.71
2022-11-04T17:46:35.017Z,80.17
2022-11-04T17:49:03.558Z,80.34
2022-11-04T17:51:30.513Z,80.42
2022-11-04T17:53:56.881Z,80.72
2022-11-04T17:56:24.011Z,81.16
2022-11-04T17:58:51.160Z,81.04
2022-11-04T18:01:20.701Z,80.92
2022-11-04T18:03:47.462Z,80.75
2022-11-04T18:06:13.945Z,80.52
2022-11-04T18:08:40.438Z,80.39
2022-11-04T18:11:10.258Z,80.45
2022-11-04T18:13:37.300Z,80.03
2022-11-04T18:16:16.834Z,80.45
2022-11-04T18:18:43.632Z,79.49
2022-11-04T18:21:10.768Z,79.51
2022-11-04T18:23:37.213Z,79.14
2022-11-04T18:26:09.041Z,79.73
2022-11-04T18:28:38.112Z,78.85
2022-11-04T18:31:09.205Z,79.10
2022-11-04T18:33:36.296Z,78.42
2022-11-04T18:36:04.731Z,78.55
2022-11-04T18:38:31.682Z,78.92
2022-11-04T18:40:58.533Z,78.91
2022-11-04T18:43:24.948Z,79.05
2022-11-04T18:45:53.414Z,78.84
2022-11-04T18:48:22.946Z,80.08
2022-11-04T18:50:49.551Z,79.58
2022-11-04T18:53:16.507Z,80.19
2022-11-04T18:55:42.962Z,79.73
2022-11-04T18:58:09.593Z,80.20
2022-11-04T19:00:38.250Z,81.00
2022-11-04T19:03:04.631Z,81.10
2022-11-04T19:05:31.398Z,81.78
2022-11-04T19:07:57.831Z,81.91
2022-11-04T19:10:24.178Z,82.04
2022-11-04T19:13:08.908Z,82.41
2022-11-04T19:15:35.761Z,82.95
2022-11-04T19:18:02.130Z,83.29
2022-11-04T19:20:28.740Z,83.33
2022-11-04T19:22:55.094Z,83.47
2022-11-04T19:25:21.512Z,83.46
2022-11-04T19:28:05.217Z,83.30
2022-11-04T19:30:35.356Z,83.40
2022-11-04T19:33:02.107Z,83.15
2022-11-04T19:35:28.986Z,83.83
2022-11-04T19:37:55.939Z,84.05
2022-11-04T19:40:22.377Z,84.10
2022-11-04T19:43:07.487Z,84.13
2022-11-04T19:45:33.860Z,83.64
2022-11-04T19:48:00.266Z,83.75
2022-11-04T19:50:26.644Z,83.77
2022-11-04T19:52:55.479Z,83.55
2022-11-04T19:55:21.977Z,83.62
2022-11-04T19:57:48.426Z,84.32
2022-11-04T20:00:15.116Z,84.31
2022-11-04T20:02:41.593Z,84.54
2022-11-04T20:05:08.276Z,84.57
2022-11-04T20:07:34.629Z,84.68
2022-11-04T20:10:01.245Z,84.60
2022-11-04T20:12:46.207Z,84.46
2022-11-04T20:15:12.634Z,84.21
2022-11-04T20:17:38.984Z,84.22
2022-11-04T20:20:05.785Z,84.44
2022-11-04T20:22:32.190Z,84.35
2022-11-04T20:24:58.832Z,84.15
2022-11-04T20:27:25.377Z,84.22
2022-11-04T20:29:51.849Z,84.22
2022-11-04T20:32:18.587Z,84.19
2022-11-04T20:34:45.226Z,84.16
2022-11-04T20:37:12.725Z,84.34
2022-11-04T20:39:39.170Z,84.50
2022-11-04T20:42:05.642Z,84.61
2022-11-04T20:44:32.579Z,84.65
2022-11-04T20:46:59.576Z,85.09
2022-11-04T20:49:25.984Z,84.83
2022-11-04T20:51:55.380Z,84.74
2022-11-04T20:54:22.295Z,84.69
2022-11-04T20:56:48.673Z,84.97
2022-11-04T20:59:20.823Z,85.04
2022-11-04T21:01:48.723Z,84.76
2022-11-04T21:04:18.785Z,85.06
2022-11-04T21:06:46.989Z,84.82
2022-11-04T21:09:15.340Z,85.16
2022-11-04T21:11:41.943Z,85.39
2022-11-04T21:14:12.538Z,85.41
2022-11-04T21:16:39.597Z,85.10
2022-11-04T21:19:07.896Z,85.15
2022-11-04T21:21:35.098Z,85.39
2022-11-04T21:24:06.223Z,86.54
2022-11-04T21:26:34.868Z,86.38
2022-11-04T21:29:04.384Z,86.66
2022-11-04T21:31:32.364Z,86.29
2022-11-04T21:33:59.360Z,86.47
2022-11-04T21:36:26.562Z,86.80
2022-11-04T21:38:52.961Z,86.97
2022-11-04T21:41:23.095Z,87.13
2022-11-04T21:43:53.887Z,87.27
2022-11-04T21:46:20.265Z,87.05
2022-11-04T21:48:46.825Z,87.32
2022-11-04T21:51:16.505Z,87.10
2022-11-04T21:53:43.352Z,86.90
2022-11-04T21:56:15.009Z,87.32
2022-11-04T21:58:43.316Z,86.79
2022-11-04T22:01:12.445Z,86.67
2022-11-04T22:03:38.987Z,87.47
2022-11-04T22:06:08.379Z,87.35
2022-11-04T22:08:35.821Z,87.52
2022-11-04T22:11:11.631Z,88.02
2022-11-04T22:13:38.193Z,87.22
2022-11-04T22:16:14.784Z,88.60
2022-11-04T22:18:42.042Z,87.71
2022-11-04T22:21:11.780Z,88.05
2022-11-04T22:23:38.195Z,87.52
2022-11-04T22:26:08.215Z,88.36
2022-11-04T22:28:34.588Z,87.71
2022-11-04T22:31:06.536Z,88.35
2022-11-04T22:33:33.244Z,88.25
2022-11-04T22:35:59.724Z,88.30
2022-11-04T22:38:26.137Z,88.33
2022-11-04T22:40:58.241Z,88.44
2022-11-04T22:43:25.768Z,88.06
2022-11-04T22:45:53.695Z,88.24
2022-11-04T22:48:20.476Z,88.22
2022-11-04T22:50:53.424Z,88.16
2022-11-04T22:53:19.929Z,88.51
2022-11-04T22:55:46.275Z,88.74
2022-11-04T22:58:12.827Z,88.89
2022-11-04T23:00:39.184Z,88.72
2022-11-04T23:03:05.874Z,88.69
2022-11-04T23:05:33.235Z,88.77
2022-11-04T23:08:00.594Z,88.76
2022-11-04T23:10:49.466Z,89.14
2022-11-04T23:13:34.797Z,88.68
2022-11-04T23:16:20.437Z,88.86
2022-11-04T23:18:50.913Z,89.03
2022-11-04T23:21:40.617Z,88.82
2022-11-04T23:24:25.886Z,88.34
2022-11-04T23:26:52.282Z,88.58
2022-11-04T23:29:37.364Z,88.59
2022-11-04T23:32:03.956Z,88.54
2022-11-04T23:34:49.061Z,88.94
2022-11-04T23:37:15.909Z,88.91
2022-11-04T23:39:47.894Z,89.00
2022-11-04T23:42:22.772Z,88.80
2022-11-04T23:45:08.829Z,89.15
2022-11-04T23:48:04.862Z,89.74
2022-11-04T23:50:52.345Z,89.63
2022-11-04T23:53:39.305Z,89.72
2022-11-04T23:56:28.082Z,90.25
2022-11-04T23:59:12.973Z,90.30
